createdAt,value
2022-10-15T00:01:20.311Z,93.66
2022-10-15T00:04:23.008Z,93.34
2022-10-15T00:07:26.355Z,93.81
2022-10-15T00:10:30.684Z,93.65
2022-10-15T00:13:34.058Z,93.48
2022-10-15T00:16:36.869Z,93.19
2022-10-15T00:19:39.388Z,93.31
2022-10-15T00:22:42.464Z,93.55
2022-10-15T00:25:46.479Z,93.94
2022-10-15T00:28:51.075Z,93.93
2022-10-15T00:31:54.561Z,93.60
2022-10-15T00:34:57.115Z,93.69
2022-10-15T00:37:59.682Z,93.76
2022-10-15T00:41:04.455Z,93.36
2022-10-15T00:44:40.707Z,94.11
2022-10-15T00:47:45.814Z,93.84
2022-10-15T00:50:48.607Z,93.82
2022-10-15T00:53:51.593Z,93.83
2022-10-15T00:56:56.412Z,94.35
2022-10-15T01:00:02.699Z,94.10
2022-10-15T01:03:05.941Z,94.53
2022-10-15T01:06:08.665Z,94.47
2022-10-15T01:09:11.523Z,94.35
2022-10-15T01:12:21.175Z,94.78
2022-10-15T01:15:27.242Z,94.57
2022-10-15T01:18:33.724Z,94.05
2022-10-15T01:21:40.193Z,93.88
2022-10-15T01:24:54.994Z,94.19
2022-10-15T01:28:05.331Z,94.54
2022-10-15T01:31:14.427Z,94.57
2022-10-15T01:34:22.194Z,94.85
2022-10-15T01:37:29.196Z,94.65
2022-10-15T01:40:35.183Z,95.03
2022-10-15T01:43:43.293Z,95.19
2022-10-15T01:46:49.156Z,95.62
2022-10-15T01:49:54.452Z,94.87
2022-10-15T01:52:57.732Z,95.08
2022-10-15T01:56:02.111Z,95.02
2022-10-15T01:59:05.903Z,95.04
2022-10-15T02:02:09.976Z,95.15
2022-10-15T02:05:17.101Z,95.18
2022-10-15T02:08:21.750Z,94.85
2022-10-15T02:11:24.584Z,94.95
2022-10-15T02:14:30.882Z,95.24
2022-10-15T02:17:39.060Z,95.26
2022-10-15T02:20:46.688Z,95.51
2022-10-15T02:23:53.964Z,95.58
2022-10-15T02:26:58.726Z,95.86
2022-10-15T02:30:03.461Z,96.23
2022-10-15T02:33:08.025Z,96.52
2022-10-15T02:36:10.876Z,96.87
2022-10-15T02:39:14.587Z,96.37
2022-10-15T02:42:18.030Z,96.55
2022-10-15T02:45:20.752Z,96.82
2022-10-15T02:48:25.339Z,96.37
2022-10-15T02:51:27.958Z,96.57
2022-10-15T02:54:30.669Z,97.00
2022-10-15T02:57:33.344Z,97.20
2022-10-15T03:00:35.974Z,96.88
2022-10-15T03:03:40.037Z,96.71
2022-10-15T03:06:42.899Z,96.64
2022-10-15T03:09:45.584Z,96.31
2022-10-15T03:12:48.242Z,96.63
2022-10-15T03:15:50.887Z,96.95
2022-10-15T03:18:55.435Z,97.11
2022-10-15T03:21:58.004Z,97.04
2022-10-15T03:25:00.557Z,97.00
2022-10-15T03:28:03.598Z,96.54
2022-10-15T03:31:06.681Z,96.61
2022-10-15T03:34:10.692Z,97.13
2022-10-15T03:37:13.521Z,97.15
2022-10-15T03:40:16.194Z,97.02
2022-10-15T03:43:18.963Z,96.61
2022-10-15T03:46:21.569Z,96.82
2022-10-15T03:49:25.507Z,96.11
2022-10-15T03:52:28.309Z,96.10
2022-10-15T03:55:30.896Z,96.38
2022-10-15T03:58:33.871Z,96.32
2022-10-15T04:01:36.690Z,96.32
2022-10-15T04:04:40.959Z,95.74
2022-10-15T04:07:43.799Z,96.32
2022-10-15T04:10:47.067Z,96.25
2022-10-15T04:13:50.713Z,96.17
2022-10-15T04:16:53.483Z,96.15
2022-10-15T04:19:57.594Z,95.77
2022-10-15T04:23:00.217Z,95.89
2022-10-15T04:26:03.256Z,95.97
2022-10-15T04:29:06.041Z,96.12
2022-10-15T04:32:08.692Z,95.94
2022-10-15T04:35:12.622Z,95.22
2022-10-15T04:38:15.302Z,95.68
2022-10-15T04:41:17.899Z,95.50
2022-10-15T04:44:20.852Z,95.11
2022-10-15T04:47:23.872Z,95.42
2022-10-15T04:50:28.081Z,95.42
2022-10-15T04:53:31.803Z,95.23
2022-10-15T04:56:34.401Z,95.84
2022-10-15T04:59:37.229Z,96.22
2022-10-15T05:02:43.028Z,95.78
2022-10-15T05:05:47.029Z,95.09
2022-10-15T05:08:51.110Z,95.00
2022-10-15T05:11:55.555Z,95.11
2022-10-15T05:14:58.208Z,95.13
2022-10-15T05:18:01.064Z,94.83
2022-10-15T05:21:05.577Z,94.41
2022-10-15T05:24:08.218Z,93.88
2022-10-15T05:27:11.037Z,93.97
2022-10-15T05:30:13.733Z,93.62
2022-10-15T05:33:16.356Z,92.96
2022-10-15T05:36:21.893Z,93.48
2022-10-15T05:39:24.598Z,93.58
2022-10-15T05:42:27.313Z,93.10
2022-10-15T05:45:29.917Z,93.12
2022-10-15T05:48:32.663Z,92.05
2022-10-15T05:51:36.748Z,91.77
2022-10-15T05:54:39.376Z,91.87
2022-10-15T05:57:42.284Z,91.79
2022-10-15T06:00:45.192Z,91.45
2022-10-15T06:03:47.976Z,91.40
2022-10-15T06:06:52.078Z,91.21
2022-10-15T06:09:54.721Z,90.02
2022-10-15T06:12:57.429Z,90.01
2022-10-15T06:16:00.209Z,88.77
2022-10-15T06:19:03.468Z,88.07
2022-10-15T06:22:07.537Z,87.96
2022-10-15T06:25:10.924Z,88.36
2022-10-15T06:28:13.450Z,87.96
2022-10-15T06:31:16.181Z,87.80
2022-10-15T06:34:18.910Z,87.74
2022-10-15T06:37:23.325Z,88.53
2022-10-15T06:40:26.174Z,88.79
2022-10-15T06:43:31.146Z,89.55
2022-10-15T06:46:35.543Z,89.55
2022-10-15T06:49:38.240Z,90.10
2022-10-15T06:52:42.430Z,90.34
2022-10-15T06:55:45.302Z,90.31
2022-10-15T06:58:48.032Z,88.72
2022-10-15T07:01:50.741Z,88.60
2022-10-15T07:04:55.480Z,88.39
2022-10-15T07:07:59.734Z,86.25
2022-10-15T07:11:02.980Z,86.06
2022-10-15T07:14:05.686Z,85.86
2022-10-15T07:17:09.142Z,85.68
2022-10-15T07:20:11.754Z,84.95
2022-10-15T07:23:15.864Z,84.21
2022-10-15T07:26:18.514Z,83.49
2022-10-15T07:29:21.201Z,82.79
2022-10-15T07:32:24.235Z,81.84
2022-10-15T07:35:27.459Z,80.99
2022-10-15T07:38:31.558Z,80.36
2022-10-15T07:41:34.370Z,78.94
2022-10-15T07:44:36.983Z,77.85
2022-10-15T07:47:41.275Z,77.37
2022-10-15T07:50:44.070Z,78.33
2022-10-15T07:53:48.510Z,78.61
2022-10-15T07:56:51.358Z,78.60
2022-10-15T07:59:54.073Z,78.60
2022-10-15T08:02:56.821Z,78.32
2022-10-15T08:06:01.388Z,78.38
2022-10-15T08:09:07.138Z,78.41
2022-10-15T08:12:10.370Z,80.19
2022-10-15T08:15:13.099Z,81.46
2022-10-15T08:18:15.898Z,82.79
2022-10-15T08:21:18.533Z,82.40
2022-10-15T08:24:22.776Z,82.25
2022-10-15T08:27:25.513Z,80.39
2022-10-15T08:30:28.190Z,79.43
2022-10-15T08:33:31.009Z,76.66
2022-10-15T08:36:33.737Z,75.33
2022-10-15T08:39:37.934Z,75.07
2022-10-15T08:42:43.890Z,73.24
2022-10-15T08:45:48.829Z,73.28
2022-10-15T08:48:55.058Z,73.53
2022-10-15T08:52:04.909Z,75.54
2022-10-15T08:55:11.482Z,76.03
2022-10-15T08:58:17.875Z,76.01
2022-10-15T09:01:26.157Z,76.07
2022-10-15T09:04:32.827Z,75.73
2022-10-15T09:07:38.368Z,75.20
2022-10-15T09:10:46.825Z,74.48
2022-10-15T09:13:50.007Z,74.01
2022-10-15T09:16:52.787Z,73.79
2022-10-15T09:19:57.307Z,73.58
2022-10-15T09:23:00.246Z,73.88
2022-10-15T09:26:09.633Z,73.28
2022-10-15T09:29:17.669Z,72.94
2022-10-15T09:32:22.558Z,73.13
2022-10-15T09:35:29.393Z,73.86
2022-10-15T09:38:39.499Z,73.60
2022-10-15T09:41:53.736Z,72.46
2022-10-15T09:44:59.530Z,71.08
2022-10-15T09:48:04.050Z,69.47
2022-10-15T09:51:12.779Z,67.82
2022-10-15T09:54:21.799Z,67.63
2022-10-15T09:57:26.536Z,66.10
2022-10-15T10:00:53.995Z,66.61
2022-10-15T10:04:12.861Z,64.72
2022-10-15T10:07:30.383Z,61.99
2022-10-15T10:10:33.372Z,60.68
2022-10-15T10:13:41.746Z,60.32
2022-10-15T10:17:09.799Z,61.29
2022-10-15T10:20:19.172Z,61.68
2022-10-15T10:23:23.949Z,60.73
2022-10-15T10:26:27.443Z,61.41
2022-10-15T10:29:37.889Z,61.79
2022-10-15T10:32:41.620Z,61.53
2022-10-15T10:35:46.671Z,62.91
2022-10-15T10:38:57.874Z,62.76
2022-10-15T10:42:02.353Z,63.56
2022-10-15T10:45:18.967Z,62.10
2022-10-15T10:48:23.526Z,59.66
2022-10-15T10:51:27.763Z,57.76
2022-10-15T10:54:31.879Z,56.30
2022-10-15T10:57:44.130Z,55.82
2022-10-15T11:00:49.605Z,56.85
2022-10-15T11:03:52.301Z,56.88
2022-10-15T11:07:02.215Z,55.26
2022-10-15T11:10:09.742Z,53.92
2022-10-15T11:13:30.429Z,54.10
2022-10-15T11:16:40.131Z,52.88
2022-10-15T11:23:25.040Z,53.82
2022-10-15T11:26:52.027Z,53.20
2022-10-15T11:29:58.437Z,52.10
2022-10-15T11:33:12.798Z,52.63
2022-10-15T11:36:34.175Z,52.78
2022-10-15T11:39:47.240Z,53.00
2022-10-15T11:42:55.898Z,53.88
2022-10-15T11:46:03.668Z,52.66
2022-10-15T11:49:24.723Z,52.85
2022-10-15T11:52:37.721Z,51.91
2022-10-15T11:55:43.049Z,51.96
2022-10-15T11:58:49.260Z,50.16
2022-10-15T12:01:54.559Z,49.33
2022-10-15T12:05:01.276Z,49.44
2022-10-15T12:11:22.875Z,49.30
2022-10-15T12:14:31.592Z,49.71
2022-10-15T12:17:43.929Z,50.08
2022-10-15T12:20:48.139Z,51.04
2022-10-15T12:23:50.888Z,51.55
2022-10-15T12:26:53.692Z,51.79
2022-10-15T12:30:20.386Z,52.37
2022-10-15T12:33:26.458Z,53.17
2022-10-15T12:36:31.419Z,53.34
2022-10-15T12:39:51.200Z,54.33
2022-10-15T12:42:57.309Z,54.81
2022-10-15T12:46:02.412Z,54.58
2022-10-15T12:49:45.155Z,55.30
2022-10-15T12:52:57.899Z,56.15
2022-10-15T12:56:14.563Z,56.61
2022-10-15T12:59:32.289Z,56.82
2022-10-15T13:02:38.376Z,57.44
2022-10-15T13:05:41.221Z,57.46
2022-10-15T13:08:47.911Z,57.69
2022-10-15T13:15:03.792Z,60.52
2022-10-15T13:18:09.969Z,60.21
2022-10-15T13:21:13.952Z,60.29
2022-10-15T13:24:20.134Z,62.78
2022-10-15T13:27:25.129Z,64.59
2022-10-15T13:30:27.694Z,68.76
2022-10-15T13:33:30.413Z,70.29
2022-10-15T13:36:34.171Z,72.71
2022-10-15T13:39:39.917Z,73.31
2022-10-15T13:42:59.237Z,74.62
2022-10-15T13:46:02.712Z,74.95
2022-10-15T13:49:12.450Z,75.38
2022-10-15T13:52:15.309Z,75.75
2022-10-15T13:55:21.818Z,75.27
2022-10-15T13:58:27.825Z,73.73
2022-10-15T14:01:31.773Z,73.00
2022-10-15T14:04:35.112Z,73.59
2022-10-15T14:07:37.581Z,72.28
2022-10-15T14:10:41.847Z,71.75
2022-10-15T14:13:45.868Z,71.25
2022-10-15T14:16:49.088Z,70.91
2022-10-15T14:20:14.782Z,70.65
2022-10-15T14:23:18.570Z,72.06
2022-10-15T14:26:26.202Z,71.80
2022-10-15T14:29:30.818Z,72.52
2022-10-15T14:32:46.476Z,71.94
2022-10-15T14:36:05.359Z,72.23
2022-10-15T14:39:30.727Z,69.27
2022-10-15T14:42:36.000Z,68.66
2022-10-15T14:45:55.020Z,67.45
2022-10-15T14:48:57.695Z,67.24
2022-10-15T14:52:03.308Z,65.18
2022-10-15T14:55:11.763Z,64.23
2022-10-15T14:58:20.882Z,62.83
2022-10-15T15:01:23.983Z,63.07
2022-10-15T15:04:39.118Z,63.46
2022-10-15T15:07:41.978Z,63.20
2022-10-15T15:10:45.349Z,61.95
2022-10-15T15:13:49.962Z,59.94
2022-10-15T15:16:52.814Z,56.60
2022-10-15T15:19:57.029Z,55.65
2022-10-15T15:23:00.125Z,55.67
2022-10-15T15:26:03.879Z,55.86
2022-10-15T15:29:13.646Z,58.71
2022-10-15T15:32:16.915Z,60.33
2022-10-15T15:35:25.613Z,54.88
2022-10-15T15:38:31.382Z,50.20
2022-10-15T15:41:34.865Z,54.22
2022-10-15T15:44:38.931Z,55.93
2022-10-15T15:47:41.659Z,57.80
2022-10-15T15:50:44.425Z,58.97
2022-10-15T15:53:47.453Z,59.78
2022-10-15T15:56:50.165Z,60.07
2022-10-15T15:59:54.252Z,61.11
2022-10-15T16:02:58.205Z,61.86
2022-10-15T16:06:01.064Z,62.49
2022-10-15T16:09:05.539Z,63.40
2022-10-15T16:12:08.318Z,63.87
2022-10-15T16:15:14.713Z,64.21
2022-10-15T16:18:18.099Z,65.16
2022-10-15T16:21:23.405Z,65.61
2022-10-15T16:24:26.192Z,65.94
2022-10-15T16:27:28.997Z,66.55
2022-10-15T16:30:33.213Z,67.25
2022-10-15T16:33:36.014Z,67.51
2022-10-15T16:36:38.774Z,67.90
2022-10-15T16:39:41.556Z,67.86
2022-10-15T16:42:44.263Z,67.96
2022-10-15T16:45:56.083Z,67.59
2022-10-15T16:48:59.054Z,67.64
2022-10-15T16:52:01.841Z,68.16
2022-10-15T16:55:05.058Z,67.86
2022-10-15T16:58:07.790Z,67.98
2022-10-15T17:01:13.776Z,67.70
2022-10-15T17:04:16.494Z,67.48
2022-10-15T17:07:19.311Z,67.87
2022-10-15T17:10:25.580Z,67.78
2022-10-15T17:13:28.383Z,68.66
2022-10-15T17:16:34.115Z,69.46
2022-10-15T17:19:36.807Z,70.18
2022-10-15T17:22:39.433Z,70.19
2022-10-15T17:25:42.697Z,70.25
2022-10-15T17:28:45.544Z,70.51
2022-10-15T17:31:49.940Z,70.16
2022-10-15T17:34:52.650Z,70.10
2022-10-15T17:37:55.474Z,70.19
2022-10-15T17:40:58.681Z,70.28
2022-10-15T17:44:01.664Z,70.04
2022-10-15T17:47:05.766Z,70.50
2022-10-15T17:50:09.266Z,70.87
2022-10-15T17:53:13.265Z,70.84
2022-10-15T17:56:17.791Z,71.07
2022-10-15T17:59:20.538Z,71.23
2022-10-15T18:02:24.783Z,71.29
2022-10-15T18:05:27.497Z,71.31
2022-10-15T18:08:30.719Z,71.07
2022-10-15T18:11:35.423Z,70.94
2022-10-15T18:14:38.207Z,70.68
2022-10-15T18:17:42.358Z,70.40
2022-10-15T18:20:46.293Z,70.36
2022-10-15T18:23:49.261Z,70.31
2022-10-15T18:26:52.039Z,70.10
2022-10-15T18:29:54.629Z,69.55
2022-10-15T18:32:58.874Z,69.82
2022-10-15T18:36:06.736Z,69.60
2022-10-15T18:39:09.258Z,69.02
2022-10-15T18:42:12.025Z,69.20
2022-10-15T18:45:14.610Z,68.95
2022-10-15T18:48:18.784Z,69.42
2022-10-15T18:51:21.615Z,68.92
2022-10-15T18:54:24.221Z,69.16
2022-10-15T18:57:26.927Z,69.40
2022-10-15T19:00:29.728Z,68.83
2022-10-15T19:03:33.769Z,69.09
2022-10-15T19:06:39.108Z,69.59
2022-10-15T19:09:41.977Z,69.93
2022-10-15T19:12:44.655Z,69.76
2022-10-15T19:15:47.270Z,69.86
2022-10-15T19:18:51.566Z,69.87
2022-10-15T19:21:55.861Z,70.03
2022-10-15T19:24:58.544Z,70.64
2022-10-15T19:28:01.676Z,70.43
2022-10-15T19:31:06.596Z,70.49
2022-10-15T19:34:11.126Z,70.15
2022-10-15T19:37:13.753Z,70.27
2022-10-15T19:40:16.458Z,70.75
2022-10-15T19:43:19.712Z,71.43
2022-10-15T19:46:23.032Z,72.27
2022-10-15T19:49:26.821Z,71.85
2022-10-15T19:52:29.482Z,71.22
2022-10-15T19:55:32.115Z,71.55
2022-10-15T19:58:34.919Z,72.05
2022-10-15T20:01:38.026Z,72.45
2022-10-15T20:04:42.114Z,72.78
2022-10-15T20:07:44.781Z,73.35
2022-10-15T20:10:51.291Z,73.49
2022-10-15T20:13:54.188Z,73.46
2022-10-15T20:16:56.772Z,73.74
2022-10-15T20:20:02.054Z,72.34
2022-10-15T20:23:05.042Z,71.98
2022-10-15T20:26:09.210Z,72.12
2022-10-15T20:29:11.882Z,71.31
2022-10-15T20:32:30.507Z,71.84
2022-10-15T20:35:39.537Z,71.07
2022-10-15T20:38:42.595Z,71.43
2022-10-15T20:41:45.346Z,71.27
2022-10-15T20:44:47.934Z,71.31
2022-10-15T20:47:52.557Z,72.27
2022-10-15T20:50:56.826Z,72.54
2022-10-15T20:54:00.226Z,72.63
2022-10-15T20:57:02.753Z,73.13
2022-10-15T21:00:08.163Z,73.78
2022-10-15T21:03:10.777Z,73.60
2022-10-15T21:06:15.205Z,74.09
2022-10-15T21:09:17.887Z,74.62
2022-10-15T21:12:20.645Z,74.70
2022-10-15T21:15:23.381Z,74.95
2022-10-15T21:18:26.949Z,75.38
2022-10-15T21:21:32.466Z,75.70
2022-10-15T21:24:35.274Z,75.83
2022-10-15T21:27:38.329Z,76.14
2022-10-15T21:30:41.273Z,76.57
2022-10-15T21:33:44.765Z,76.49
2022-10-15T21:36:48.825Z,76.56
2022-10-15T21:39:51.910Z,76.89
2022-10-15T21:42:54.561Z,76.72
2022-10-15T21:45:57.388Z,76.91
2022-10-15T21:49:00.872Z,77.00
2022-10-15T21:52:05.072Z,77.43
2022-10-15T21:55:08.887Z,77.92
2022-10-15T21:58:11.603Z,78.20
2022-10-15T22:01:19.103Z,78.91
2022-10-15T22:04:22.570Z,78.83
2022-10-15T22:07:26.825Z,79.05
2022-10-15T22:10:30.573Z,79.44
2022-10-15T22:13:33.210Z,79.02
2022-10-15T22:16:37.501Z,79.51
2022-10-15T22:19:40.207Z,79.26
2022-10-15T22:22:44.603Z,80.13
2022-10-15T22:25:47.405Z,80.36
2022-10-15T22:28:50.177Z,80.90
2022-10-15T22:31:53.730Z,80.28
2022-10-15T22:34:56.342Z,78.85
2022-10-15T22:38:00.365Z,78.24
2022-10-15T22:41:04.773Z,77.27
2022-10-15T22:44:07.770Z,77.16
2022-10-15T22:47:10.513Z,77.27
2022-10-15T22:50:13.129Z,77.23
2022-10-15T22:53:17.067Z,76.88
2022-10-15T22:56:20.118Z,77.36
2022-10-15T22:59:22.756Z,77.35
2022-10-15T23:02:25.775Z,78.27
2022-10-15T23:05:28.556Z,78.48
2022-10-15T23:08:33.063Z,78.88
2022-10-15T23:11:37.604Z,79.16
2022-10-15T23:14:40.182Z,79.87
2022-10-15T23:17:42.794Z,79.71
2022-10-15T23:20:45.398Z,79.66
2022-10-15T23:23:49.424Z,80.14
2022-10-15T23:26:52.525Z,80.53
2022-10-15T23:30:07.377Z,80.32
2022-10-15T23:33:17.097Z,80.68
2022-10-15T23:36:20.785Z,80.46
2022-10-15T23:39:26.536Z,80.86
2022-10-15T23:42:30.077Z,80.85
2022-10-15T23:45:34.778Z,80.72
2022-10-15T23:48:39.583Z,80.07
2022-10-15T23:51:42.516Z,79.50
2022-10-15T23:54:46.788Z,79.81
2022-10-15T23:57:49.568Z,79.47
